Западная Россия

Регион "Западная Россия" VATRUS включает в себя территорию Республики Беларусь - Зональный центр Минск, а также территорию Региональных центров ЕС ОрВД Москва и Самара в Российской Федерации.

Примечателен регион тем, что в Беларуси полеты осуществляются в соответствии с международными документами ICAO, а в России - согласно Федеральным авиационным правилам. Это накладывает некоторые особенности работы, в том числе немного различаются минимальные интервалы.

Тем не менее, на всей территории региона радиосвязь может вестись как на русском, так и на английском языках.

Руководство осуществляют независимо руководители трех центров, их контакты вы можете найти на страницах РПИ ниже.

Лого Западная Россия
FSS региона
Обозначение
RU-WRC_FSS
Позывной
Запад-Контроль
Частота
135.320
Примечание
Top-down, исключая Московский УДР GND-FL285
Инструкторы региона
Alexander Petrenko (Instructor)
Alexey Dobronravov (Instructor)
Andrei Valasevich * (Controller)
Anton Myglan (Senior Instructor)
Artem Smorchkov (Instructor)
Denis Kashin (Instructor)
Dmitry Markus (Instructor)
Ilya Pyankov (Instructor)
Ivan Buev * (Controller)
Ivan Chokenyuk * (Controller)
Ivan Skatov (Instructor)
Matvey Safyannikov (Instructor)
Maxim Gerasimov (Instructor)
Maxim Tsygankov (Instructor)
Roman Savel (Instructor)
Sergei Stetsko * (Controller)
Yulia Goryacheva (Instructor)
Включает в себя

РПИ Минск
РПИ Москва
РПИ Самара

Диспетчеры региона

Диспетчер Рейтинг Допуски *
Artem Mordvinov Controller UMMV_CTR
Alexander Petrenko Instructor UUWV_CTR , UWWW_CTR
Alexey Dobronravov Instructor UUWV_CTR , UWWW_CTR
Andrei Valasevich Controller UMMV_CTR
Artem Smorchkov Instructor UUWV_CTR , UWWW_CTR
Denis Kashin Instructor UMMV_CTR
Dmitry Markus Instructor UUWV_CTR , UWWW_CTR
George Kalandadze Controller UUWV_CTR
Ivan Buev Controller UUWV_CTR , UWWW_CTR
Ivan Skatov Instructor UUWV_CTR , UWWW_CTR
Karim Garifullin Controller UUWV_CTR , UWWW_CTR
Masha Stanchenko Controller UUWV_CTR
Maxim Gerasimov Instructor UMMV_CTR
Maxim Tsygankov Instructor UUWV_CTR , UWWW_CTR
Nick Smirnov Senior Student UUWV_CTR  *, MSK_APP(UUEE+UUDD+UUWW)
Robert Farber Controller UUWV_CTR
Roman Savel Instructor UMMV_CTR
Sergei Stetsko Controller UWWW_CTR
Sergey Kovalenko Controller UUWV_CTR
Stanley Yorke Controller UWWW_CTR , UUBW_APP, UUWW_DEP, UUWW_F_APP, UUWW_APP
Vladimir Anisimov Controller UUWV_CTR , UWWW_CTR
Vyacheslav Neklyudov Senior Student UUWV_CTR  *
Yulia Goryacheva Instructor UUWV_CTR , UWWW_CTR
Yury Koryagin Instructor UUWV_CTR , UWWW_CTR
Akmal Choriev Student UMMS_GND
Aleksandr Lysenko Student UUWW_GND, UUWW_TWR*
Aleksey Zgoda Student UMMS_GND
alex kozyro Student 2 UMMS_2_TWR*, UMMS_1_TWR*
Alex Sapuck Student UUDD_GND
Alexander Belyakov Unknown UMMS_APP
Alexander Mikhin Student 2 UUDD_TWR, UUWW_DEP*, UUWW_F_APP*, UUWW_APP*, UWKD_TWR
Alexander Nazarenko Student UMMS_GND
Alexey Verbitsky Student UMMS_GND
Alexsey Gorbunov Unknown UUDD_GND
Anna Piliushko Student 2 UMMS_APP*
Anton Beshenov Student UUEE_GND, UUEE_N_GND, UUEE_S_GND
Arseniy Artyushin Student UWWW_GND
Arseny Krutikov Student 2 UMMS_R_APP*
Artem Morozov Student 2 UUDD_DEP*, UUDD_F_APP*, UUDD_APP*, UUEE_TWR, UUEE_N_TWR, UUEE_S_TWR
Arteom Alexeev Student UUEE_GND, UUEE_N_GND, UUEE_S_GND
Arthur Kurbangaleev Student UWWW_GND
Artyom Somok Student UMMS_GND
Bogdan Mavrodiev Student UUDD_GND
Daniil Voinov Senior Student MSK_APP(UUEE+UUWW+UUDD)
Danil Basharov Student 2 UUDD_DEP*, UUDD_F_APP*, UUDD_APP*, UUDD_TWR
Danila Yarov Senior Student UMMS_APP
Dmitriy Kuzmin Senior Student UMMS_APP
Egor Goriachev Student 2 UUEE_GND, UUEE_N_GND, UUEE_S_GND, UUEE_TWR*, UUEE_N_TWR*, UUEE_S_TWR*
Evgeniy Dedyaev Senior Student UWLL_APP(UWLL+UWLW) , UWUU_APP, UWKD_APP(UWKD+UWKS+UWKE+UWKJ+UWKB) , UWWW_APP, UWSG_APP
Gleb Ishmuratov Student UUDD_GND
Gleb Smolkov Student 2 UUEE_DEP*, UUEE_F_APP*, UUEE_APP*, UUEE_TWR, UUEE_N_TWR, UUEE_S_TWR
Ignat Aligov Student UUWW_GND
Ignat Morozov Student 2 UMMS_GND
Iosif Karpov Student 2 UMMS_R_APP*
Ivan Baranov Student UUEE_GND, UUEE_N_GND, UUEE_S_GND
Ivan Davidovich Student UMMS_GND
Ivan Piskovsky Unknown UUWW_GND
Kirill Kudryavtsev Student UUWW_GND
Kirill Ryabov Student 2 UUEE_DEP*, UUEE_F_APP*, UUEE_APP*
Maksim Tsyro Student UMMS_GND
mansur sibgatullin Student UWKD_GND
Mark Brenden Student UUDD_GND
Maxim Ivantsov Student 2 UMMS_R_APP*
Maxim Kalalenskiy Student UUWW_TWR*, UUWW_GND
Maxim Khromtsov Controller MSK_APP(UUEE+UUWW+UUDD)
Michael Kostelcev Student 2 UMMS_APP*
Michael Loyuk Senior Student MSK_APP(UUDD+UUEE+UUWW)
Mihail Mihailov Senior Student MSK_APP(UUEE+UUDD+UUWW)
Nikita Levin Student 2 UUWW_TWR, UUEE_DEP*, UUEE_F_APP*, UUEE_APP*
Nikolay Klemenchev Student UUWW_GND
Pavel Kostuykov Student 2 UMMS_2_TWR, UMMS_1_TWR
Pavel Moskvin Student UUWW_GND
Pavel Sergienko Student 2 UUML_TWR
Pavel Yashin Student 2 UMMS_APP*
Petr Koreshkov Student UUEE_GND, UUEE_N_GND, UUEE_S_GND
Sergey Isaev Student 2 UUEE_TWR, UUEE_N_TWR, UUEE_S_TWR, UUEE_DEP*, UUEE_F_APP*, UUEE_APP*
Vladimir Kon Student UUDD_GND
Vsevolod Shyshko Student UMMS_2_TWR*, UMMS_1_TWR*
Yury Kompaniychenko Student 2 UUML_TWR!!!

Аэропорты региона

ICAO Город Название Погода
UMMS Минск Минск UMMS 100730Z 04004MPS 2500 -SN BKN005 OVC030 M02/M03 Q1007 RESN NOSIG RMK QBB170
UUWW Москва Внуково UUWW 100730Z 10002MPS 1500 1200SE R06/1900D BR OVC002 M03/M03 Q1013 R06/520245 TEMPO 0500 FZFG
UUDD Москва Домодедово UUDD 100730Z 11002MPS 040V150 1200 0650SW R14R/1400D FZFG OVC002 M03/M04 Q1013 R14R/520237 NOSIG RMK QBB060
UUBW Москва Жуковский UUBW 100730Z 09001MPS 1800 1200SE R30/1200U BR OVC002 M02/M02 Q1014 R30/420242 NOSIG RMK QBB060
UUMU Москва Чкаловский
UUEE Москва Шереметьево UUEE 100730Z 07003MPS 3500 BR OVC012 M03/M04 Q1013 R06R/410245 R06C/410245 NOSIG
UWWW Самара Курумоч UWWW 100730Z 19008MPS CAVOK M10/M16 Q1031 R15/CLRD60 NOSIG RMK QFE762/1016
UWUU Уфа Уфа UWUU 100730Z 17004MPS CAVOK M13/M18 Q1037 R14R/811052 NOSIG
UUOB Белгород Белгород UUOB 100730Z 15004MPS 0100 R11/M0200N FG VV000 02/02 Q1014 R11/820335 NOSIG RMK QBB020
UMBB Брест Брест UMBB 100700Z 04005G08MPS 4100 -SHSN BR OVC007CB M01/M01 Q1004 NOSIG
UUBP Брянск Брянск UUBP 100730Z 10003MPS 1000 R16/1400D BR OVC001 ///015 00/00 Q1011 R16/////// NOSIG RMK QBB040 QFE740/0987
UWKB Бугульма Бугульма
UMII Витебск Восточный UMII 100700Z 06002MPS 8000 SCT006 OVC016 M04/M05 Q1010 TEMPO 2000 BR BKN005 RMK QBB200
UUOO Воронеж Воронеж UUOO 100730Z 16004MPS 5000 BR OVC004 00/00 Q1017 R12/591032 NOSIG RMK QFE749
UMGG Гомель Гомель UMGG 100730Z 08005G08MPS 2700 -SHSNRA BR BKN003 OVC015CB 00/M00 Q1008 RESHSNRA NOSIG RMK QBB100
UMMG Гродно Гродно UMMG 100700Z 07004G07MPS 4300 BR OVC004 M02/M03 Q1008 NOSIG RMK QBB120
UUBI Иваново Иваново
UWKJ Йошкар-Ола Йошкар-Ола
UWKD Казань Казань UWKD 100730Z 17009MPS 1200 R11/1200N SN BLSN OVC010 M08/M10 Q1024 R11/420540 TEMPO 0500 +SN BLSN RMK QFE758/1011
UUBC Калуга Калуга UUBC 100730Z 12001MPS 0300 R31/0550N FZFG VV002 M01/M01 Q1012 R31/420138 NOSIG RMK QBB070 QFE742/0990
UUOK Курск Курск UUOK 100730Z 16005MPS 0350 0300SE R12/0350N FG VV001 01/01 Q1013 R12/////// NOSIG RMK QBB050 QFE742/0989
UMOO Могилёв Могилёв UMOO 100700Z 08002MPS 1100 R31/1100 SN BR OVC002 M02/M03 Q1009 NOSIG RMK QBB060
UUMO Москва Остафьево UUMO 100730Z 10002MPS 3000 BR OVC003 M03/M03 Q1013 R07/590338 NOSIG RMK QBB090 QFE745/0994
UWKE Нижнекамск Бегишево UWKE 100730Z 21009G14MPS CAVOK M09/M15 Q1028 R21/710060 NOSIG RMK QFE754/1006
UWGG Нижний Новгород Стригино UWGG 100730Z 17003MPS 9999 OVC014 M03/M04 Q1018 R18L/450134 NOSIG
UWOO Оренбург Оренбург UWOO 100730Z 12003MPS CAVOK M16/M19 Q1042 R26/59D NOSIG RMK QFE770/1027
UWOR Орск Орск UWOR 100700Z 00000MPS CAVOK M13/M19 Q1041 R25/850245 NOSIG RMK QFE756/1009
UWPP Пенза Пенза
UWPS Саранск Саранск UWPS 100730Z 20010MPS 1900 R20/1800U SN BLSN OVC012 M04/M06 Q1021 R20/450540 TEMPO 18010G17MPS 0500 +FZRA +SN BLSN OVC003 RMK QFE748
UWSG Саратов Гагарин UWSG 100730Z 15005MPS 9999 BKN026 M08/M11 Q1030 R08/CLRD70 NOSIG RMK QFE770/1027
UWLL Ульяновск-УЛК Ульяновск UWLL 100730Z 19006MPS 9999 OVC016 M05/M08 Q1026 R20/810150 NOSIG RMK QFE759/1012
UWLW Ульяновск-УЛС Восточный UWLW 100700Z 14007MPS 9999 OVC017 M08/M12 Q1027 R20/820545 NOSIG RMK QFE765/1020
UWKS Чебоксары Чебоксары UWKS 100730Z 19003MPS 3200 -SHSN BKN007CB M05/M06 Q1021 R06/490733 NOSIG RMK QFE750
UUDL Ярославль Туношна UUDL 100730Z 10002MPS 9999 SCT004 OVC015 M05/M05 Q1016 R23/490540 NOSIG RMK QBB120 QFE754
UUMW Ватулино Ватулино
UUML Воскресенск Северка